MSC Turchia — A8IL9 — position and weather

sailwx.info

Track history (hours):
 
Tides and Currents Weather Stations Pressure Air Temp Water Temp Dewpoint Dewpoint Depression Visibility Wind Speed Wind Dir Waves Ship Positions

MSC Turchia

Last reported at 2015-Feb-28 05:13 UTC. Time now 2015-Feb-28 12:34 UTC.
Position N 38°25' W 074°42'.

Length 276 m; beam 40 m; draft 14 m.

Type: Ship. MMSI: 636091212.

Date/timePositionNaut miles runAvg speedWind from/ knotsBaromVisibWave heightAir tempDewpointWater temp
2015-Feb-28 05:13N 38°25' W 074°42'812.8
2015-Feb-28 04:33N 38°32' W 074°48'1010.4
2015-Feb-28 03:33N 38°40' W 074°56'10 9.7
2015-Feb-28 02:33N 38°48' W 075°03'1313.0
2015-Feb-28 01:34N 39°00' W 075°09'1716.9
2015-Feb-28 00:34N 39°15' W 075°19'1716.6
2015-Feb-27 23:34N 39°27' W 075°34'1413.5
2015-Feb-27 22:33N 39°41' W 075°31'1010.0
2015-Feb-27 21:33N 39°49' W 075°24'1010.0
2015-Feb-27 20:34N 39°53' W 075°12'3 3.0
2015-Feb-27 19:33N 39°54' W 075°08'0 0.0
2015-Feb-27 18:33N 39°54' W 075°08'0 0.0
2015-Feb-27 17:33N 39°54' W 075°08'0 0.0
2015-Feb-27 16:33N 39°54' W 075°08'0 0.0
2015-Feb-27 15:33N 39°54' W 075°08'0 0.0
2015-Feb-27 14:33N 39°54' W 075°08'0 0.0
2015-Feb-27 13:33N 39°54' W 075°08'0 0.0
2015-Feb-27 12:33N 39°54' W 075°08'0 0.0
2015-Feb-27 11:33N 39°54' W 075°08'0 0.0
2015-Feb-27 10:34N 39°54' W 075°08'4 3.7
2015-Feb-27 09:34N 39°52' W 075°12'1010.2
2015-Feb-27 08:34N 39°48' W 075°25'1211.8
2015-Feb-27 07:34N 39°39' W 075°34'1313.4
2015-Feb-27 06:34N 39°25' W 075°31'1515.0
2015-Feb-27 05:33N 39°14' W 075°18'1615.9
2015-Feb-27 04:33N 39°00' W 075°08'1312.6
2015-Feb-27 03:33N 38°48' W 075°03'9 9.2
2015-Feb-27 02:33N 38°42' W 074°54'19 3.1
2015-Feb-26 20:31N 38°38' W 074°30'4213.3
2015-Feb-26 17:22N 39°16' W 074°08'1113.6
2015-Feb-26 16:34N 39°26' W 074°03'1616.0
2015-Feb-26 15:34N 39°41' W 073°55'4912.1
2015-Feb-26 11:33N 40°30' W 073°57'1110.6
2015-Feb-26 10:33N 40°40' W 074°03'1 1.5
2015-Feb-26 09:33N 40°40' W 074°05'0 0.0
2015-Feb-26 08:27N 40°40' W 074°05'0 0.0
2015-Feb-26 07:33N 40°40' W 074°05'0 0.0
2015-Feb-26 06:24N 40°40' W 074°05'0 0.0
2015-Feb-26 05:33N 40°40' W 074°05'0 0.0
2015-Feb-26 04:15N 40°40' W 074°05'0 0.0
2015-Feb-26 03:09N 40°40' W 074°05'0 0.0
2015-Feb-25 23:18N 40°40' W 074°05'0 0.0
2015-Feb-25 22:21N 40°40' W 074°05'0 0.0
2015-Feb-25 21:12N 40°40' W 074°05'0 0.0
2015-Feb-25 20:27N 40°40' W 074°05'0 0.0
2015-Feb-25 19:33N 40°40' W 074°05'0 0.0
2015-Feb-25 17:33N 40°40' W 074°05'0 0.0
2015-Feb-25 16:21N 40°40' W 074°05'0 0.0
2015-Feb-25 13:24N 40°40' W 074°05'0 0.0
2015-Feb-25 12:06N 40°40' W 074°05'0 0.0
2015-Feb-25 11:24N 40°40' W 074°05'0 0.0
2015-Feb-25 10:09N 40°40' W 074°05'0 0.0
2015-Feb-25 09:30N 40°40' W 074°05'0 0.0
2015-Feb-25 08:33N 40°40' W 074°05'0 0.0
2015-Feb-25 07:30N 40°40' W 074°05'0 0.0
2015-Feb-25 06:30N 40°40' W 074°05'0 0.0
2015-Feb-25 05:33N 40°40' W 074°05'0 0.0
2015-Feb-25 04:33N 40°40' W 074°05'0 0.0
2015-Feb-25 03:30N 40°40' W 074°05'0 0.0
2015-Feb-25 02:33N 40°40' W 074°05'3 2.8
2015-Feb-25 01:33N 40°38' W 074°03'1111.3
2015-Feb-25 00:33N 40°29' W 073°54'9 9.2
2015-Feb-24 23:33N 40°24' W 073°44'10 9.5
2015-Feb-24 22:33N 40°19' W 073°33'1414.0
2015-Feb-24 21:33N 40°10' W 073°19'1814.7
2015-Feb-24 20:20N 39°58' W 073°02'1214.6
2015-Feb-24 19:28N 39°49' W 072°50'1414.5
2015-Feb-24 18:31N 39°40' W 072°37'  
Track history (hours):
 
Tides and Currents Weather Stations Pressure Air Temp Water Temp Dewpoint Dewpoint Depression Visibility Wind Speed Wind Dir Waves Ship Positions

MSC Turchia

Last reported at 2015-Feb-28 05:13 UTC. Time now 2015-Feb-28 12:34 UTC.
Position N 38°25' W 074°42'.

Length 276 m; beam 40 m; draft 14 m.

Type: Ship. MMSI: 636091212.

Date/timePositionNaut miles runAvg speedWind from/ knotsBaromVisibWave heightAir tempDewpointWater temp
2015-Feb-28 05:13N 38°25' W 074°42'812.8
2015-Feb-28 04:33N 38°32' W 074°48'1010.4
2015-Feb-28 03:33N 38°40' W 074°56'10 9.7
2015-Feb-28 02:33N 38°48' W 075°03'1313.0
2015-Feb-28 01:34N 39°00' W 075°09'1716.9
2015-Feb-28 00:34N 39°15' W 075°19'1716.6
2015-Feb-27 23:34N 39°27' W 075°34'1413.5
2015-Feb-27 22:33N 39°41' W 075°31'1010.0
2015-Feb-27 21:33N 39°49' W 075°24'1010.0
2015-Feb-27 20:34N 39°53' W 075°12'3 3.0
2015-Feb-27 19:33N 39°54' W 075°08'0 0.0
2015-Feb-27 18:33N 39°54' W 075°08'0 0.0
2015-Feb-27 17:33N 39°54' W 075°08'0 0.0
2015-Feb-27 16:33N 39°54' W 075°08'0 0.0
2015-Feb-27 15:33N 39°54' W 075°08'0 0.0
2015-Feb-27 14:33N 39°54' W 075°08'0 0.0
2015-Feb-27 13:33N 39°54' W 075°08'0 0.0
2015-Feb-27 12:33N 39°54' W 075°08'0 0.0
2015-Feb-27 11:33N 39°54' W 075°08'0 0.0
2015-Feb-27 10:34N 39°54' W 075°08'4 3.7
2015-Feb-27 09:34N 39°52' W 075°12'1010.2
2015-Feb-27 08:34N 39°48' W 075°25'1211.8
2015-Feb-27 07:34N 39°39' W 075°34'1313.4
2015-Feb-27 06:34N 39°25' W 075°31'1515.0
2015-Feb-27 05:33N 39°14' W 075°18'1615.9
2015-Feb-27 04:33N 39°00' W 075°08'1312.6
2015-Feb-27 03:33N 38°48' W 075°03'9 9.2
2015-Feb-27 02:33N 38°42' W 074°54'19 3.1
2015-Feb-26 20:31N 38°38' W 074°30'4213.3
2015-Feb-26 17:22N 39°16' W 074°08'1113.6
2015-Feb-26 16:34N 39°26' W 074°03'1616.0
2015-Feb-26 15:34N 39°41' W 073°55'4912.1
2015-Feb-26 11:33N 40°30' W 073°57'1110.6
2015-Feb-26 10:33N 40°40' W 074°03'1 1.5
2015-Feb-26 09:33N 40°40' W 074°05'0 0.0
2015-Feb-26 08:27N 40°40' W 074°05'0 0.0
2015-Feb-26 07:33N 40°40' W 074°05'0 0.0
2015-Feb-26 06:24N 40°40' W 074°05'0 0.0
2015-Feb-26 05:33N 40°40' W 074°05'0 0.0
2015-Feb-26 04:15N 40°40' W 074°05'0 0.0
2015-Feb-26 03:09N 40°40' W 074°05'0 0.0
2015-Feb-25 23:18N 40°40' W 074°05'0 0.0
2015-Feb-25 22:21N 40°40' W 074°05'0 0.0
2015-Feb-25 21:12N 40°40' W 074°05'0 0.0
2015-Feb-25 20:27N 40°40' W 074°05'0 0.0
2015-Feb-25 19:33N 40°40' W 074°05'0 0.0
2015-Feb-25 17:33N 40°40' W 074°05'0 0.0
2015-Feb-25 16:21N 40°40' W 074°05'0 0.0
2015-Feb-25 13:24N 40°40' W 074°05'0 0.0
2015-Feb-25 12:06N 40°40' W 074°05'0 0.0
2015-Feb-25 11:24N 40°40' W 074°05'0 0.0
2015-Feb-25 10:09N 40°40' W 074°05'0 0.0
2015-Feb-25 09:30N 40°40' W 074°05'0 0.0
2015-Feb-25 08:33N 40°40' W 074°05'0 0.0
2015-Feb-25 07:30N 40°40' W 074°05'0 0.0
2015-Feb-25 06:30N 40°40' W 074°05'0 0.0
2015-Feb-25 05:33N 40°40' W 074°05'0 0.0
2015-Feb-25 04:33N 40°40' W 074°05'0 0.0
2015-Feb-25 03:30N 40°40' W 074°05'0 0.0
2015-Feb-25 02:33N 40°40' W 074°05'3 2.8
2015-Feb-25 01:33N 40°38' W 074°03'1111.3
2015-Feb-25 00:33N 40°29' W 073°54'9 9.2
2015-Feb-24 23:33N 40°24' W 073°44'10 9.5
2015-Feb-24 22:33N 40°19' W 073°33'1414.0
2015-Feb-24 21:33N 40°10' W 073°19'1814.7
2015-Feb-24 20:20N 39°58' W 073°02'1214.6
2015-Feb-24 19:28N 39°49' W 072°50'1414.5
2015-Feb-24 18:31N 39°40' W 072°37'  

Dump ship's entire track history